Time;durP1;ratioP1;P1;durP2;ratioP2;P2;SDS_P1;SDS_P2;PMS_P1;PMS_P2;Temp;Humidity;BMP_temperature;BMP_pressure;BME280_temperature;BME280_humidity;BME280_pressure;Samples;Min_cycle;Max_cycle;Signal;HPM_P1;HPM_P2
2021/09/04 00:01:00;;;;;;;13.35;8.98;;;;;;;12.23;74.94;101565.70;1793895;80;21574;-80
2021/09/04 00:03:27;;;;;;;18.45;9.83;;;;;;;12.23;74.94;101567.02;1793969;80;21139;-80
2021/09/04 00:05:53;;;;;;;14.15;8.85;;;;;;;12.24;74.93;101560.91;1787876;80;20986;-80
2021/09/04 00:08:20;;;;;;;16.93;9.30;;;;;;;12.25;74.91;101564.00;1787967;80;21044;-81
2021/09/04 00:10:47;;;;;;;14.73;9.33;;;;;;;12.27;74.84;101562.30;1788227;80;21781;-80
2021/09/04 00:13:13;;;;;;;13.85;9.00;;;;;;;12.26;74.83;101561.84;1788112;78;21487;-80
2021/09/04 00:15:40;;;;;;;16.40;10.03;;;;;;;12.28;74.81;101568.50;1788191;80;21064;-80
2021/09/04 00:18:07;;;;;;;15.78;8.65;;;;;;;12.28;74.75;101557.94;1788252;80;21113;-80
2021/09/04 00:20:34;;;;;;;16.55;10.25;;;;;;;12.25;74.75;101562.67;1788510;80;21325;-83
2021/09/04 00:23:01;;;;;;;15.95;9.73;;;;;;;12.23;74.79;101564.38;1788243;80;21774;-83
2021/09/04 00:25:27;;;;;;;14.38;9.88;;;;;;;12.24;74.83;101569.70;1788207;80;20998;-83
2021/09/04 00:27:54;;;;;;;15.85;9.63;;;;;;;12.26;74.92;101568.44;1788324;80;21037;-83
2021/09/04 00:30:21;;;;;;;14.78;10.20;;;;;;;12.29;74.87;101568.52;1788308;80;21654;-83
2021/09/04 00:32:47;;;;;;;13.35;9.38;;;;;;;12.31;74.89;101569.89;1788328;80;21515;-83
2021/09/04 00:35:15;;;;;;;16.95;9.95;;;;;;;12.32;74.91;101567.30;1788092;79;21788;-82
2021/09/04 00:37:42;;;;;;;15.30;10.25;;;;;;;12.32;74.81;101569.06;1787885;78;21567;-80
2021/09/04 00:40:10;;;;;;;17.48;9.35;;;;;;;12.29;74.84;101567.20;1788059;80;21017;-81
2021/09/04 00:42:37;;;;;;;16.42;9.68;;;;;;;12.30;74.96;101571.64;1788133;80;21135;-81
2021/09/04 00:45:04;;;;;;;17.62;10.43;;;;;;;12.32;74.91;101576.98;1788143;79;21629;-80
2021/09/04 00:47:31;;;;;;;13.85;9.75;;;;;;;12.32;74.92;101575.22;1788228;80;21811;-80
2021/09/04 00:49:57;;;;;;;15.30;9.40;;;;;;;12.32;74.90;101572.58;1788089;80;21112;-84
2021/09/04 00:52:24;;;;;;;15.03;9.55;;;;;;;12.31;74.83;101571.21;1788022;80;21015;-84
2021/09/04 00:54:51;;;;;;;15.30;10.10;;;;;;;12.29;74.91;101571.59;1788031;80;21101;-82
2021/09/04 00:57:17;;;;;;;17.60;10.28;;;;;;;12.30;74.98;101572.08;1783201;80;21342;-83
2021/09/04 00:59:44;;;;;;;15.88;10.28;;;;;;;12.31;75.00;101564.61;1788055;80;21737;-81
2021/09/04 01:02:11;;;;;;;19.07;10.60;;;;;;;12.30;74.96;101571.64;1788059;80;21494;-81
2021/09/04 01:04:37;;;;;;;17.00;10.60;;;;;;;12.30;74.97;101576.03;1787956;80;21600;-81
2021/09/04 01:07:04;;;;;;;16.90;10.38;;;;;;;12.28;74.92;101575.09;1787715;80;21057;-81
2021/09/04 01:09:31;;;;;;;15.98;9.93;;;;;;;12.22;74.89;101570.09;1787979;80;21077;-83
2021/09/04 01:11:58;;;;;;;15.88;10.48;;;;;;;12.20;74.97;101574.83;1787984;80;21737;-83
2021/09/04 01:14:24;;;;;;;16.15;10.32;;;;;;;12.21;75.11;101581.48;1788021;80;21581;-83
2021/09/04 01:16:51;;;;;;;14.90;10.20;;;;;;;12.22;75.15;101586.36;1787827;78;21037;-83
2021/09/04 01:19:17;;;;;;;17.57;9.75;;;;;;;12.24;75.23;101591.26;1788265;78;21045;-83
2021/09/04 01:21:44;;;;;;;15.30;10.05;;;;;;;12.29;75.24;101596.67;1788318;80;21053;-83
2021/09/04 01:24:11;;;;;;;17.70;9.63;;;;;;;12.32;75.21;101594.14;1788267;80;22508;-84
2021/09/04 01:26:37;;;;;;;16.00;10.15;;;;;;;12.33;75.24;101595.52;1788194;80;20994;-84
2021/09/04 01:29:04;;;;;;;12.90;9.45;;;;;;;12.33;75.25;101588.91;1788216;80;21060;-81
2021/09/04 01:31:31;;;;;;;15.75;10.10;;;;;;;12.34;75.26;101585.84;1788122;80;21123;-82
2021/09/04 01:33:57;;;;;;;19.05;9.63;;;;;;;12.35;75.29;101588.93;1788140;80;21092;-83
2021/09/04 01:36:33;;;;;;;14.78;9.78;;;;;;;12.36;75.32;101584.14;1788086;80;21736;-83
2021/09/04 01:39:00;;;;;;;13.30;8.95;;;;;;;12.36;75.31;101590.73;1788004;79;21033;-83
2021/09/04 01:41:27;;;;;;;13.75;9.13;;;;;;;12.37;75.31;101597.79;1788384;80;21056;-80
2021/09/04 01:43:54;;;;;;;16.37;9.10;;;;;;;12.38;75.42;101597.84;1788114;80;21652;-80
2021/09/04 01:46:20;;;;;;;14.10;8.83;;;;;;;12.41;75.42;101597.06;1788394;80;21041;-83
2021/09/04 01:48:47;;;;;;;14.50;8.00;;;;;;;12.44;75.45;101589.22;1788404;80;21743;-84
2021/09/04 01:51:14;;;;;;;17.48;8.03;;;;;;;12.43;75.38;101582.16;1788214;78;20982;-81
2021/09/04 01:53:41;;;;;;;14.18;8.70;;;;;;;12.42;75.37;101583.88;1788259;80;21084;-82
2021/09/04 01:56:09;;;;;;;12.25;7.55;;;;;;;12.39;75.34;101586.89;1788007;80;21077;-82
2021/09/04 01:58:36;;;;;;;17.65;8.90;;;;;;;12.38;75.46;101591.68;1788189;80;21002;-82
2021/09/04 02:01:03;;;;;;;13.58;8.45;;;;;;;12.39;75.54;101598.33;1788277;79;21709;-82
2021/09/04 02:03:31;;;;;;;14.80;8.28;;;;;;;12.41;75.60;101593.99;1788326;80;21058;-84
2021/09/04 02:05:58;;;;;;;15.13;8.80;;;;;;;12.45;75.64;101593.66;1787808;78;21053;-84
2021/09/04 02:08:24;;;;;;;14.28;8.50;;;;;;;12.45;75.54;101593.23;1787840;80;21010;-83
2021/09/04 02:10:51;;;;;;;13.22;8.38;;;;;;;12.45;75.53;101585.74;1788126;80;21054;-83
2021/09/04 02:13:18;;;;;;;11.75;7.65;;;;;;;12.42;75.48;101584.31;1788136;80;21738;-84
2021/09/04 02:15:45;;;;;;;13.65;7.85;;;;;;;12.39;75.46;101586.45;1788227;78;21096;-84
2021/09/04 02:18:11;;;;;;;16.42;8.83;;;;;;;12.39;75.51;101590.84;1788220;80;21052;-81
2021/09/04 02:20:38;;;;;;;13.35;7.70;;;;;;;12.39;75.59;101594.38;1788210;80;21006;-81
2021/09/04 02:23:04;;;;;;;11.55;7.67;;;;;;;12.41;75.64;101599.70;1788223;80;21593;-81
2021/09/04 02:25:31;;;;;;;12.82;7.42;;;;;;;12.42;75.68;101597.52;1788197;78;22567;-82
2021/09/04 02:27:58;;;;;;;11.05;7.87;;;;;;;12.42;75.66;101598.41;1788198;80;21173;-81
2021/09/04 02:30:24;;;;;;;16.07;7.85;;;;;;;12.46;75.69;101606.00;1788214;80;21563;-80
2021/09/04 02:32:51;;;;;;;12.88;7.55;;;;;;;12.45;75.72;101598.95;1788268;80;21561;-80
2021/09/04 02:35:18;;;;;;;12.55;7.58;;;;;;;12.47;75.80;101601.20;1788146;79;21084;-79
2021/09/04 02:37:44;;;;;;;11.70;7.10;;;;;;;12.50;75.83;101603.03;1788095;80;21733;-80
2021/09/04 02:40:11;;;;;;;16.02;7.80;;;;;;;12.50;75.82;101603.03;1787916;78;21077;-79
2021/09/04 02:42:38;;;;;;;18.35;7.37;;;;;;;12.50;75.86;101600.39;1788121;80;21052;-79
2021/09/04 02:45:06;;;;;;;13.68;7.58;;;;;;;12.50;75.87;101603.03;1787751;79;38421;-80
2021/09/04 02:47:34;;;;;;;11.38;7.03;;;;;;;12.51;75.91;101599.56;1788197;80;21073;-80
2021/09/04 02:50:00;;;;;;;12.20;6.72;;;;;;;12.53;75.97;101600.50;1788065;80;21741;-80
2021/09/04 02:52:27;;;;;;;11.95;6.58;;;;;;;12.53;75.88;101597.42;1787617;80;21034;-81
2021/09/04 02:54:54;;;;;;;9.40;6.87;;;;;;;12.54;75.94;101602.30;1788057;80;21566;-81
2021/09/04 02:57:21;;;;;;;12.98;6.65;;;;;;;12.52;75.92;101594.73;1788075;78;21101;-81
2021/09/04 02:59:47;;;;;;;11.08;6.85;;;;;;;12.52;76.00;101600.94;1788027;80;21049;-81
2021/09/04 03:02:14;;;;;;;11.40;6.35;;;;;;;12.53;76.06;101598.75;1787988;80;21723;-81
2021/09/04 03:04:41;;;;;;;14.53;7.20;;;;;;;12.52;76.00;101599.61;1787768;80;20966;-81
2021/09/04 03:07:08;;;;;;;10.28;6.60;;;;;;;12.52;76.04;101606.61;1787542;79;20990;-81
2021/09/04 03:09:34;;;;;;;9.30;6.33;;;;;;;12.51;76.04;101609.69;1787962;80;21048;-81
2021/09/04 03:12:03;;;;;;;10.20;7.30;;;;;;;12.51;76.12;101611.01;1787943;80;21069;-81
2021/09/04 03:14:30;;;;;;;9.70;6.65;;;;;;;12.53;76.13;101612.38;1787865;80;21797;-81
2021/09/04 03:16:57;;;;;;;13.45;7.12;;;;;;;12.53;76.10;101608.42;1787826;80;20990;-82
2021/09/04 03:19:23;;;;;;;9.03;6.33;;;;;;;12.51;76.09;101597.80;1787955;79;21057;-81
2021/09/04 03:21:50;;;;;;;13.35;7.00;;;;;;;12.53;76.14;101604.03;1787891;79;21045;-81
2021/09/04 03:24:17;;;;;;;12.55;7.00;;;;;;;12.53;76.15;101604.03;1787960;80;21002;-80
2021/09/04 03:26:43;;;;;;;10.32;6.47;;;;;;;12.53;76.13;101611.95;1788121;80;21691;-80
2021/09/04 03:29:10;;;;;;;13.28;6.78;;;;;;;12.52;76.16;101614.53;1787902;80;21064;-84
2021/09/04 03:31:36;;;;;;;11.30;6.40;;;;;;;12.53;76.23;101617.66;1788123;80;21034;-83
2021/09/04 03:34:03;;;;;;;12.37;6.92;;;;;;;12.52;76.19;101612.81;1788255;80;21034;-83
2021/09/04 03:36:30;;;;;;;11.40;7.37;;;;;;;12.52;76.18;101607.94;1788259;80;21147;-83
2021/09/04 03:38:56;;;;;;;11.20;6.70;;;;;;;12.45;76.09;101605.55;1788256;80;21710;-83
2021/09/04 03:41:23;;;;;;;12.23;7.17;;;;;;;12.37;76.04;101607.95;1788240;80;21007;-83
2021/09/04 03:43:50;;;;;;;9.20;6.37;;;;;;;12.29;76.15;101608.11;1788350;80;21053;-83
2021/09/04 03:46:17;;;;;;;15.30;7.30;;;;;;;12.22;76.24;101603.52;1788209;80;21042;-84
2021/09/04 03:48:43;;;;;;;8.98;6.67;;;;;;;12.17;76.32;101607.31;1788433;80;21002;-83
2021/09/04 03:51:11;;;;;;;20.72;7.62;;;;;;;12.09;76.32;101611.85;1788312;80;21751;-82
2021/09/04 03:53:38;;;;;;;10.20;6.70;;;;;;;11.98;76.37;101621.65;1788153;80;21046;-83
2021/09/04 03:56:04;;;;;;;10.10;6.33;;;;;;;11.88;76.61;101622.17;1788268;80;21668;-83
2021/09/04 03:58:31;;;;;;;10.50;6.47;;;;;;;11.86;76.85;101627.39;1788254;80;21116;-83
2021/09/04 04:00:58;;;;;;;12.20;6.87;;;;;;;11.87;77.08;101623.89;1788279;80;21276;-81
2021/09/04 04:03:24;;;;;;;9.95;6.30;;;;;;;11.92;77.21;101623.17;1788172;79;21713;-80
2021/09/04 04:05:51;;;;;;;13.58;6.28;;;;;;;11.95;77.26;101618.89;1787776;80;21269;-80
2021/09/04 04:08:18;;;;;;;9.95;5.65;;;;;;;12.04;77.51;101617.88;1787921;78;21077;-81
2021/09/04 04:10:44;;;;;;;9.93;6.12;;;;;;;12.22;77.53;101612.32;1788190;80;21209;-80
2021/09/04 04:13:11;;;;;;;10.30;5.92;;;;;;;12.20;76.91;101619.70;1788097;80;21060;-83
2021/09/04 04:15:38;;;;;;;10.78;5.40;;;;;;;12.10;76.76;101621.14;1788288;79;21798;-83
2021/09/04 04:18:04;;;;;;;10.98;6.22;;;;;;;12.04;76.91;101628.88;1788041;80;20989;-84
2021/09/04 04:20:31;;;;;;;13.48;6.20;;;;;;;12.04;77.08;101631.51;1788745;80;20947;-85
2021/09/04 04:22:58;;;;;;;11.03;5.83;;;;;;;12.05;77.19;101632.89;1788561;80;21017;-85
2021/09/04 04:25:24;;;;;;;8.28;5.53;;;;;;;12.12;77.29;101634.40;1788567;80;21021;-84
2021/09/04 04:27:51;;;;;;;11.43;5.95;;;;;;;12.19;77.36;101638.61;1788565;80;21727;-87
2021/09/04 04:30:18;;;;;;;13.00;6.47;;;;;;;12.30;77.40;101636.75;1795954;79;21596;-86
2021/09/04 04:32:44;;;;;;;10.38;6.72;;;;;;;12.38;77.36;101641.41;1783722;79;21006;-85
2021/09/04 04:35:11;;;;;;;13.58;5.85;;;;;;;12.45;77.27;101637.23;1788341;80;20994;-85
2021/09/04 04:37:38;;;;;;;9.90;6.28;;;;;;;12.50;77.14;101638.28;1788430;80;21021;-85
2021/09/04 04:40:06;;;;;;;12.82;6.42;;;;;;;12.55;77.09;101639.30;1788639;80;22525;-87
2021/09/04 04:42:33;;;;;;;8.75;5.78;;;;;;;12.62;77.00;101637.76;1788696;80;21057;-84
2021/09/04 04:45:00;;;;;;;9.88;6.47;;;;;;;12.64;76.83;101639.59;1788640;80;21112;-85
2021/09/04 04:47:26;;;;;;;13.60;6.75;;;;;;;12.63;76.68;101635.17;1788416;80;20986;-84
2021/09/04 04:49:53;;;;;;;15.40;6.25;;;;;;;12.76;76.90;101643.45;1757820;80;21081;-83
2021/09/04 04:52:20;;;;;;;13.58;6.85;;;;;;;13.32;77.65;101633.66;1787324;79;21741;-82
2021/09/04 04:54:46;;;;;;;14.35;6.25;;;;;;;13.82;77.34;101637.66;1787110;80;21035;-81
2021/09/04 04:57:13;;;;;;;9.43;5.83;;;;;;;14.66;77.21;101638.80;1787181;79;21594;-81
2021/09/04 04:59:40;;;;;;;9.65;5.72;;;;;;;14.96;75.20;101637.28;1787353;80;21046;-81
2021/09/04 05:02:07;;;;;;;8.90;5.90;;;;;;;14.96;74.56;101639.49;1787146;80;21590;-81
2021/09/04 05:04:33;;;;;;;8.80;6.03;;;;;;;15.98;76.19;101647.20;1787228;80;22994;-81
2021/09/04 05:07:00;;;;;;;7.25;5.12;;;;;;;17.77;75.76;101642.52;1792285;79;21040;-81
2021/09/04 05:09:27;;;;;;;8.40;5.08;;;;;;;19.62;74.22;101632.53;1793751;79;20997;-81
2021/09/04 05:11:54;;;;;;;8.08;5.42;;;;;;;21.24;71.96;101644.37;1794014;78;21046;-83
2021/09/04 05:14:20;;;;;;;7.78;5.20;;;;;;;21.76;69.38;101648.57;1794067;80;21049;-85
2021/09/04 05:16:47;;;;;;;8.80;5.30;;;;;;;21.67;66.26;101638.34;1791125;78;21725;-83
2021/09/04 05:19:14;;;;;;;8.30;5.12;;;;;;;21.21;64.99;101637.68;1793949;80;21048;-83
2021/09/04 05:21:40;;;;;;;9.43;5.53;;;;;;;20.83;64.21;101641.41;1794231;79;20974;-83
2021/09/04 05:24:07;;;;;;;8.55;5.47;;;;;;;20.39;63.77;101641.92;1793396;79;21041;-82
2021/09/04 05:26:34;;;;;;;5.97;4.42;;;;;;;20.02;63.82;101637.05;1792618;80;21519;-83
2021/09/04 05:29:00;;;;;;;6.00;4.55;;;;;;;19.78;63.68;101638.80;1792645;80;22563;-83
2021/09/04 05:31:27;;;;;;;10.18;4.90;;;;;;;19.52;63.71;101640.05;1792423;79;21084;-83
2021/09/04 05:33:54;;;;;;;6.22;4.60;;;;;;;19.21;63.65;101629.30;1792310;80;21064;-82
2021/09/04 05:36:20;;;;;;;8.28;4.65;;;;;;;19.01;63.54;101646.56;1792241;79;21083;-83
2021/09/04 05:38:47;;;;;;;8.08;4.70;;;;;;;18.67;63.36;101653.47;1792364;79;21061;-83
2021/09/04 05:41:14;;;;;;;6.92;4.70;;;;;;;18.38;63.56;101655.52;1792208;79;21713;-82
2021/09/04 05:43:40;;;;;;;5.37;4.03;;;;;;;18.10;63.64;101657.08;1792172;79;21002;-83
2021/09/04 05:46:07;;;;;;;7.15;3.72;;;;;;;17.86;63.85;101651.97;1760852;80;21099;-83
2021/09/04 05:48:34;;;;;;;5.58;3.90;;;;;;;17.63;63.75;101655.70;1791876;79;21706;-83
2021/09/04 05:51:00;;;;;;;5.80;4.17;;;;;;;17.36;63.84;101662.94;1792410;79;21009;-83
2021/09/04 05:53:27;;;;;;;6.42;3.92;;;;;;;17.16;64.23;101660.06;1792344;80;21689;-84
2021/09/04 05:55:54;;;;;;;6.80;4.00;;;;;;;17.07;64.69;101666.14;1792077;80;21518;-84
2021/09/04 05:58:24;;;;;;;6.95;3.70;;;;;;;17.12;65.00;101667.52;1791755;79;21035;-83
2021/09/04 06:00:55;;;;;;;6.42;4.15;;;;;;;17.24;65.22;101662.36;1739622;80;21033;-83
2021/09/04 06:03:24;;;;;;;7.62;3.62;;;;;;;17.31;64.85;101666.89;1760248;81;21055;-84
2021/09/04 06:05:51;;;;;;;12.82;4.85;;;;;;;17.32;64.42;101666.44;1792535;79;21734;-85
2021/09/04 06:08:18;;;;;;;9.60;3.75;;;;;;;17.40;64.39;101665.67;1794505;79;21536;-85
2021/09/04 06:10:46;;;;;;;8.08;3.85;;;;;;;17.56;64.55;101673.37;1795754;78;21077;-83
2021/09/04 06:13:12;;;;;;;4.95;3.67;;;;;;;17.79;64.38;101665.64;1770484;79;21602;-83
2021/09/04 06:15:39;;;;;;;6.83;3.83;;;;;;;17.99;64.09;101671.63;1797165;79;21029;-83
2021/09/04 06:18:05;;;;;;;5.83;3.27;;;;;;;18.13;63.77;101671.73;1796481;78;22480;-82
2021/09/04 06:20:32;;;;;;;5.42;3.72;;;;;;;18.28;63.48;101672.30;1796476;79;21104;-83
2021/09/04 06:22:59;;;;;;;7.85;3.95;;;;;;;18.32;63.14;101682.09;1796693;79;21013;-81
2021/09/04 06:25:25;;;;;;;7.47;4.58;;;;;;;18.28;62.75;101685.17;1796680;79;21029;-82
2021/09/04 06:27:52;;;;;;;7.95;4.67;;;;;;;18.30;62.77;101683.45;1796729;79;21025;-81
2021/09/04 06:30:19;;;;;;;8.95;4.72;;;;;;;18.30;62.68;101689.19;1796599;79;21781;-82
2021/09/04 06:32:46;;;;;;;10.00;4.15;;;;;;;18.21;62.60;101680.25;1797035;79;22301;-82
2021/09/04 06:35:13;;;;;;;5.92;4.35;;;;;;;18.15;62.65;101674.88;1796893;79;21141;-83
2021/09/04 06:37:39;;;;;;;4.80;3.35;;;;;;;18.08;62.56;101673.04;1797152;79;21587;-85
2021/09/04 06:40:07;;;;;;;8.33;3.70;;;;;;;18.03;62.60;101676.09;1797149;79;21029;-84
2021/09/04 06:42:34;;;;;;;5.53;4.15;;;;;;;17.98;62.67;101676.48;1797078;79;21816;-83
2021/09/04 06:45:00;;;;;;;7.47;4.33;;;;;;;17.95;62.64;101678.69;1796997;79;21029;-85
2021/09/04 06:47:27;;;;;;;6.53;3.90;;;;;;;17.93;62.78;101677.78;1797269;78;20982;-84
2021/09/04 06:49:54;;;;;;;8.03;4.47;;;;;;;17.94;62.65;101679.55;1797193;79;21053;-84
2021/09/04 06:52:20;;;;;;;7.50;4.05;;;;;;;17.97;62.65;101682.70;1797119;79;21476;-83
2021/09/04 06:54:47;;;;;;;10.88;4.33;;;;;;;18.03;62.51;101689.41;1797336;79;21753;-83
2021/09/04 06:57:14;;;;;;;6.08;3.50;;;;;;;18.06;62.41;101690.34;1797174;79;21507;-83
2021/09/04 06:59:40;;;;;;;7.55;4.03;;;;;;;18.08;62.48;101689.47;1797333;79;21208;-84
2021/09/04 07:02:07;;;;;;;6.15;3.98;;;;;;;18.08;62.36;101694.80;1796923;79;21041;-82
2021/09/04 07:04:34;;;;;;;8.80;3.75;;;;;;;17.97;61.99;101690.25;1797119;79;21657;-85
2021/09/04 07:07:04;;;;;;;5.15;3.83;;;;;;;17.85;62.01;101692.81;1795388;79;22423;-84
2021/09/04 07:09:34;;;;;;;5.12;3.50;;;;;;;17.77;62.14;101699.77;1794007;80;21018;-84
2021/09/04 07:12:00;;;;;;;4.97;3.60;;;;;;;17.74;62.41;101698.44;1794155;79;20994;-85
2021/09/04 07:14:27;;;;;;;4.87;3.08;;;;;;;17.77;62.54;101693.11;1793958;80;21538;-86
2021/09/04 07:16:54;;;;;;;8.85;3.60;;;;;;;17.88;62.59;101696.81;1794260;80;21017;-86
2021/09/04 07:19:21;;;;;;;6.65;3.58;;;;;;;17.96;62.47;101695.55;1793760;79;21849;-84
2021/09/04 07:21:47;;;;;;;5.53;3.12;;;;;;;18.00;62.30;101696.95;1793402;80;21036;-84
2021/09/04 07:24:14;;;;;;;4.30;2.98;;;;;;;18.05;62.08;101697.86;1793566;78;21200;-84
2021/09/04 07:26:41;;;;;;;4.15;2.87;;;;;;;18.08;61.85;101699.69;1793662;78;20998;-85
2021/09/04 07:29:08;;;;;;;7.12;3.25;;;;;;;18.11;61.90;101695.69;1793655;79;21043;-83
2021/09/04 07:31:34;;;;;;;6.50;3.33;;;;;;;18.23;62.09;101706.92;1793442;80;21733;-83
2021/09/04 07:34:01;;;;;;;4.28;2.98;;;;;;;18.38;62.03;101707.49;1803374;78;22207;-84
2021/09/04 07:36:28;;;;;;;4.10;3.12;;;;;;;18.51;61.97;101709.38;1806557;78;21471;-84
2021/09/04 07:38:54;;;;;;;6.17;2.60;;;;;;;18.61;61.40;101710.33;1796903;78;21267;-84
2021/09/04 07:41:21;;;;;;;6.90;3.30;;;;;;;18.69;61.26;101716.59;1803000;78;21028;-84
2021/09/04 07:43:47;;;;;;;3.95;2.80;;;;;;;18.78;61.03;101715.77;1762224;80;21729;-83
2021/09/04 07:46:14;;;;;;;5.87;3.00;;;;;;;18.85;60.78;101718.97;1790665;80;21104;-83
2021/09/04 07:48:41;;;;;;;4.12;2.70;;;;;;;18.90;60.68;101720.31;1792965;78;21030;-84
2021/09/04 07:51:07;;;;;;;5.17;3.08;;;;;;;18.96;60.32;101714.59;1766073;80;21089;-84
2021/09/04 07:53:34;;;;;;;4.22;2.98;;;;;;;19.07;59.86;101718.66;1793735;78;21181;-81
2021/09/04 07:56:01;;;;;;;4.17;2.72;;;;;;;19.21;59.66;101719.60;1798281;78;22589;-88
2021/09/04 07:58:27;;;;;;;4.60;2.70;;;;;;;19.35;58.75;101718.77;1775888;79;21110;-85
2021/09/04 08:00:54;;;;;;;5.05;2.50;;;;;;;19.43;58.38;101717.92;1795255;78;21056;-84
2021/09/04 08:03:21;;;;;;;5.40;2.52;;;;;;;19.53;57.44;101721.97;1796528;78;20991;-85
2021/09/04 08:05:48;;;;;;;3.47;2.47;;;;;;;19.68;57.25;101726.47;1793796;78;21068;-85
2021/09/04 08:08:15;;;;;;;9.58;3.00;;;;;;;19.80;57.04;101738.54;1792555;78;21732;-85
2021/09/04 08:10:43;;;;;;;3.75;2.72;;;;;;;19.90;57.32;101739.03;1792780;78;20986;-84
2021/09/04 08:13:11;;;;;;;4.47;2.80;;;;;;;20.02;57.21;101736.81;1805033;78;21411;-84
2021/09/04 08:15:39;;;;;;;5.35;2.55;;;;;;;20.13;56.93;101738.17;1814756;78;21042;-84
2021/09/04 08:18:05;;;;;;;3.62;1.92;;;;;;;20.30;56.41;101739.52;1817555;78;21030;-84
2021/09/04 08:20:32;;;;;;;7.83;1.82;;;;;;;20.32;54.63;101740.41;1817157;78;21725;-84
2021/09/04 08:22:58;;;;;;;4.80;2.77;;;;;;;20.12;53.64;101745.31;1817286;78;21629;-84
2021/09/04 08:25:25;;;;;;;3.55;1.72;;;;;;;20.13;53.07;101740.84;1817356;78;21060;-84
2021/09/04 08:27:52;;;;;;;3.60;2.10;;;;;;;20.13;52.84;101739.51;1817282;78;21606;-84
2021/09/04 08:30:19;;;;;;;2.90;1.80;;;;;;;20.19;52.10;101742.18;1818018;78;21002;-86
2021/09/04 08:32:45;;;;;;;4.37;1.70;;;;;;;20.28;51.66;101743.98;1818892;78;22628;-83
2021/09/04 08:35:12;;;;;;;3.12;1.80;;;;;;;20.42;51.20;101742.22;1818417;78;21026;-83
2021/09/04 08:37:42;;;;;;;7.20;2.00;;;;;;;20.56;50.98;101745.76;1818738;78;20995;-84
2021/09/04 08:40:11;;;;;;;4.75;2.20;;;;;;;20.70;51.30;101743.13;1818667;78;21109;-83
2021/09/04 08:42:37;;;;;;;4.47;2.10;;;;;;;20.86;51.24;101744.44;1818583;77;21110;-83
2021/09/04 08:45:05;;;;;;;3.58;2.00;;;;;;;20.97;51.13;101751.54;1818704;78;21691;-84
2021/09/04 08:47:32;;;;;;;3.65;2.17;;;;;;;20.95;50.04;101749.77;1818868;78;21050;-83
2021/09/04 08:49:59;;;;;;;3.33;2.15;;;;;;;20.93;49.64;101760.48;1818868;78;21054;-84
2021/09/04 08:52:28;;;;;;;5.08;1.98;;;;;;;20.92;49.97;101756.45;1819015;78;21018;-88
2021/09/04 08:54:54;;;;;;;5.80;2.30;;;;;;;20.88;49.53;101757.36;1819242;78;21041;-86
2021/09/04 08:57:21;;;;;;;7.55;2.50;;;;;;;20.77;49.60;101752.02;1819127;78;22608;-86
2021/09/04 08:59:51;;;;;;;6.72;3.12;;;;;;;20.66;49.98;101756.48;1819035;78;21002;-86
2021/09/04 09:02:19;;;;;;;4.20;2.30;;;;;;;20.49;50.23;101755.13;1819179;78;21120;-86
2021/09/04 09:05:05;;;;;;;5.90;2.72;;;;;;;20.34;49.61;101752.88;1819140;78;21119;-87
2021/09/04 09:07:45;;;;;;;4.83;2.37;;;;;;;20.13;48.89;101753.76;1817413;77;21045;-87
2021/09/04 09:10:28;;;;;;;3.80;1.90;;;;;;;19.90;49.05;101753.72;1815767;79;22270;-86
2021/09/04 09:12:54;;;;;;;4.55;2.62;;;;;;;19.86;49.41;101759.03;1815556;78;20988;-87
2021/09/04 09:15:23;;;;;;;7.53;2.50;;;;;;;19.85;49.87;101763.95;1815976;79;21010;-87
2021/09/04 09:18:09;;;;;;;5.33;2.40;;;;;;;19.75;50.18;101763.04;1815876;78;21686;-87
2021/09/04 09:20:36;;;;;;;4.25;2.42;;;;;;;19.60;49.33;101774.06;1815899;78;21038;-87
2021/09/04 09:23:14;;;;;;;6.53;2.55;;;;;;;19.38;48.82;101773.52;1786526;79;22495;-87
2021/09/04 09:25:42;;;;;;;6.42;3.22;;;;;;;19.29;50.04;101780.15;1815921;79;21055;-87
2021/09/04 09:28:16;;;;;;;7.12;2.67;;;;;;;19.15;50.28;101780.97;1815890;79;21128;-87
2021/09/04 09:30:56;;;;;;;8.98;2.65;;;;;;;19.00;50.51;101781.76;1815922;79;21023;-87
2021/09/04 09:33:25;;;;;;;7.22;2.75;;;;;;;18.90;50.62;101790.59;1786714;79;21054;-87
2021/09/04 09:35:54;;;;;;;6.28;2.65;;;;;;;18.75;50.86;101793.09;1815946;79;21765;-87
2021/09/04 09:38:26;;;;;;;6.95;2.80;;;;;;;18.75;51.15;101794.00;1815727;79;21089;-85
2021/09/04 09:40:54;;;;;;;7.50;2.67;;;;;;;18.82;51.22;101789.17;1815541;79;21113;-87
2021/09/04 09:43:29;;;;;;;3.20;2.27;;;;;;;18.93;50.87;101787.05;1815557;79;21043;-87
2021/09/04 09:46:00;;;;;;;3.02;1.70;;;;;;;18.99;50.59;101789.30;1815763;79;20998;-87
2021/09/04 09:48:30;;;;;;;4.05;2.10;;;;;;;18.97;50.04;101789.73;1815157;79;21772;-87
2021/09/04 09:50:58;;;;;;;2.35;1.87;;;;;;;18.91;49.73;101784.36;1815044;79;21579;-88
2021/09/04 09:53:25;;;;;;;6.25;2.62;;;;;;;18.95;49.65;101783.95;1815880;79;22287;-87
2021/09/04 09:55:53;;;;;;;4.42;2.55;;;;;;;19.03;49.84;101788.88;1816167;79;21069;-87
2021/09/04 09:58:22;;;;;;;3.08;2.02;;;;;;;19.06;49.99;101790.25;1815996;79;20979;-86
2021/09/04 10:00:50;;;;;;;3.33;2.35;;;;;;;19.09;50.26;101790.70;1816098;78;21736;-87
2021/09/04 10:03:17;;;;;;;7.08;2.08;;;;;;;19.20;50.37;101797.91;1815818;77;21047;-87
2021/09/04 10:05:43;;;;;;;5.30;2.22;;;;;;;19.26;49.92;101791.72;1815773;78;21042;-85
2021/09/04 10:08:10;;;;;;;4.30;2.10;;;;;;;19.22;49.62;101792.59;1790201;78;20991;-85
2021/09/04 10:10:42;;;;;;;5.35;2.12;;;;;;;19.19;49.16;101788.10;1742937;78;21568;-85
2021/09/04 10:13:10;;;;;;;5.20;3.00;;;;;;;19.17;48.54;101795.20;1819283;78;21714;-85
2021/09/04 10:15:38;;;;;;;8.05;3.08;;;;;;;19.10;48.64;101791.16;1794045;78;20991;-85
2021/09/04 10:18:06;;;;;;;9.20;3.52;;;;;;;19.13;49.19;101792.53;1819431;78;21046;-85
2021/09/04 10:20:33;;;;;;;5.05;2.95;;;;;;;19.16;49.51;101794.78;1819507;78;21578;-85
2021/09/04 10:23:34;;;;;;;15.60;6.00;;;;;;;19.29;49.79;101794.38;1819380;78;20971;-85
2021/09/04 10:26:39;;;;;;;13.22;4.45;;;;;;;19.50;49.83;101790.03;1819405;78;21743;-84
2021/09/04 10:29:13;;;;;;;;;;;;;;;19.72;49.52;101790.61;1821864;78;21034;-84
2021/09/04 10:32:00;;;;;;;8.83;3.10;;;;;;;19.78;49.04;101796.42;1819448;78;20474;-84
2021/09/04 10:34:39;;;;;;;8.53;2.50;;;;;;;19.85;49.29;101797.34;1796571;78;21186;-85
2021/09/04 10:37:15;;;;;;;8.08;2.40;;;;;;;19.93;48.93;101797.83;1818660;78;21053;-84
2021/09/04 10:39:59;;;;;;;7.78;2.50;;;;;;;19.96;48.69;101800.49;1819284;77;21694;-84
2021/09/04 10:42:30;;;;;;;5.60;2.55;;;;;;;20.04;48.92;101799.63;1819479;78;20994;-84
2021/09/04 10:45:15;;;;;;;7.80;2.70;;;;;;;20.13;48.34;101797.86;1819719;78;21015;-85
2021/09/04 10:47:54;;;;;;;7.62;4.20;;;;;;;20.22;48.33;101801.02;1794446;78;21084;-85
2021/09/04 10:50:24;;;;;;;7.65;2.85;;;;;;;20.26;47.90;101798.78;1819733;78;21042;-86
2021/09/04 10:53:05;;;;;;;5.80;2.22;;;;;;;20.29;48.02;101797.46;1819743;78;22387;-87
2021/09/04 10:55:40;;;;;;;4.05;2.40;;;;;;;20.37;47.59;101794.80;1818356;78;21308;-86
2021/09/04 10:58:17;;;;;;;4.30;2.15;;;;;;;20.45;47.38;101789.45;1819653;78;21073;-87
2021/09/04 11:00:50;;;;;;;6.17;2.80;;;;;;;20.58;47.36;101791.23;1819752;78;21578;-86
2021/09/04 11:03:21;;;;;;;4.72;2.55;;;;;;;20.57;46.50;101793.45;1819962;78;27144;-87
2021/09/04 11:05:56;;;;;;;5.00;3.12;;;;;;;20.46;46.46;101796.56;1819750;77;21729;-86
2021/09/04 11:08:38;;;;;;;3.52;2.12;;;;;;;20.48;46.20;101798.83;1817295;78;20992;-86
2021/09/04 11:11:41;;;;;;;4.65;2.25;;;;;;;20.59;46.46;101800.61;1814870;79;21547;-87
2021/09/04 11:14:22;;;;;;;10.28;7.60;;;;;;;20.75;46.20;101798.84;1814162;79;21173;-87
2021/09/04 11:16:52;;;;;;;10.68;2.75;;;;;;;20.74;45.91;101802.42;1786490;80;21053;-87
2021/09/04 11:19:27;;;;;;;4.22;2.98;;;;;;;20.76;45.91;101801.09;1771975;80;21854;-86
2021/09/04 11:22:01;;;;;;;3.02;2.30;;;;;;;20.85;45.83;101804.19;1771258;81;21599;-87
2021/09/04 11:24:35;;;;;;;4.20;2.15;;;;;;;20.90;45.56;101807.30;1770749;81;21107;-86
2021/09/04 11:27:14;;;;;;;7.35;2.47;;;;;;;20.86;45.66;101804.64;1770312;81;21085;-85